Time;durP1;ratioP1;P1;durP2;ratioP2;P2;SDS_P1;SDS_P2;PMS_P1;PMS_P2;Temp;Humidity;BMP_temperature;BMP_pressure;BME280_temperature;BME280_humidity;BME280_pressure;Samples;Min_cycle;Max_cycle;Signal;HPM_P1;HPM_P2
2022/11/12 00:02:10;;;;;;;3.97;1.48;;;27.00;99.90;;;;;;5029639;28;20197;-81
2022/11/12 00:04:40;;;;;;;3.13;1.50;;;26.90;99.90;;;;;;5028462;28;20201;-79
2022/11/12 00:07:11;;;;;;;3.28;1.80;;;26.90;99.90;;;;;;5030034;28;20281;-83
2022/11/12 00:09:44;;;;;;;3.47;1.50;;;26.70;99.90;;;;;;5028181;28;20202;-80
2022/11/12 00:12:15;;;;;;;2.78;1.60;;;26.90;99.90;;;;;;5030522;28;20194;-82
2022/11/12 00:14:46;;;;;;;3.42;1.38;;;27.00;99.90;;;;;;5029471;28;20223;-80
2022/11/12 00:17:16;;;;;;;3.08;1.40;;;27.00;99.90;;;;;;5029370;28;20216;-83
2022/11/12 00:19:47;;;;;;;2.92;1.75;;;26.90;99.90;;;;;;5025954;28;20195;-86
2022/11/12 00:22:18;;;;;;;2.15;1.40;;;26.90;99.90;;;;;;5031322;28;20234;-84
2022/11/12 00:24:51;;;;;;;3.80;1.30;;;26.90;99.90;;;;;;5031146;28;20198;-81
2022/11/12 00:27:22;;;;;;;1.98;1.30;;;27.00;99.90;;;;;;5030399;28;20198;-79
2022/11/12 00:29:52;;;;;;;1.92;1.40;;;26.80;99.90;;;;;;5034961;28;20265;-82
2022/11/12 00:32:23;;;;;;;3.60;1.35;;;26.60;99.90;;;;;;5031932;28;20217;-80
2022/11/12 00:34:54;;;;;;;2.67;1.30;;;26.70;99.90;;;;;;5029789;28;20727;-82
2022/11/12 00:37:25;;;;;;;1.73;1.23;;;26.60;99.90;;;;;;5029317;28;20238;-81
2022/11/12 00:39:57;;;;;;;1.80;1.38;;;26.60;99.90;;;;;;5030393;28;20698;-79
2022/11/12 00:42:28;;;;;;;3.95;1.50;;;26.70;99.90;;;;;;5026111;28;20198;-84
2022/11/12 00:44:59;;;;;;;4.07;1.50;;;26.80;99.90;;;;;;5032358;28;20210;-81
2022/11/12 00:47:29;;;;;;;3.28;1.50;;;26.90;99.90;;;;;;5033166;28;20779;-81
2022/11/12 00:50:00;;;;;;;1.98;1.20;;;26.90;99.90;;;;;;5029752;28;20194;-78
2022/11/12 00:52:31;;;;;;;1.88;1.20;;;26.80;99.90;;;;;;5029900;28;20202;-79
2022/11/12 00:55:04;;;;;;;2.22;1.38;;;26.60;99.90;;;;;;5035114;28;20214;-81
2022/11/12 00:57:34;;;;;;;3.40;1.30;;;26.80;99.90;;;;;;5030692;28;20198;-81
2022/11/12 01:00:06;;;;;;;2.50;1.40;;;26.80;99.90;;;;;;5027093;28;20183;-81
2022/11/12 01:02:37;;;;;;;1.45;1.02;;;26.90;99.90;;;;;;5033240;28;20257;-83
2022/11/12 01:05:08;;;;;;;2.20;1.27;;;26.90;99.90;;;;;;5034554;28;20269;-83
2022/11/12 01:07:39;;;;;;;1.30;1.20;;;26.90;99.90;;;;;;5031113;28;20198;-80
2022/11/12 01:10:12;;;;;;;2.10;1.45;;;26.80;99.90;;;;;;5033019;28;20286;-80
2022/11/12 01:12:43;;;;;;;3.40;1.50;;;26.80;99.90;;;;;;5031613;28;20199;-80
2022/11/12 01:15:14;;;;;;;2.25;1.25;;;26.80;99.90;;;;;;5034433;28;20673;-79
2022/11/12 01:17:45;;;;;;;2.92;1.52;;;26.70;99.90;;;;;;5033652;28;20194;-81
2022/11/12 01:20:15;;;;;;;1.63;1.45;;;26.70;99.90;;;;;;5033378;28;20198;-82
2022/11/12 01:22:46;;;;;;;4.22;1.40;;;26.90;99.90;;;;;;5030108;28;20194;-88
2022/11/12 01:25:19;;;;;;;4.35;1.60;;;26.90;99.90;;;;;;5031918;28;20580;-81
2022/11/12 01:27:50;;;;;;;2.03;1.50;;;26.90;99.90;;;;;;5023587;28;20206;-77
2022/11/12 01:30:20;;;;;;;2.63;1.40;;;27.00;99.90;;;;;;5028015;28;20191;-78
2022/11/12 01:32:51;;;;;;;3.30;1.50;;;26.90;99.90;;;;;;5031180;28;20197;-77
2022/11/12 01:35:22;;;;;;;3.47;2.28;;;26.90;99.90;;;;;;5028848;28;20215;-76
2022/11/12 01:37:53;;;;;;;6.38;2.20;;;26.80;99.90;;;;;;5032931;28;20234;-77
2022/11/12 01:40:25;;;;;;;2.47;1.60;;;26.70;99.90;;;;;;5033550;28;20206;-77
2022/11/12 01:42:56;;;;;;;4.28;1.40;;;26.50;99.90;;;;;;5031224;28;20194;-77
2022/11/12 01:45:27;;;;;;;2.28;1.73;;;26.50;99.90;;;;;;5032915;28;20198;-78
2022/11/12 01:47:59;;;;;;;4.22;1.70;;;26.30;99.90;;;;;;5031786;28;20191;-80
2022/11/12 01:50:33;;;;;;;2.20;1.60;;;26.10;99.90;;;;;;5023665;28;20203;-79
2022/11/12 01:53:07;;;;;;;5.28;1.60;;;26.10;99.90;;;;;;5030616;28;20557;-80
2022/11/12 01:55:40;;;;;;;5.93;1.70;;;26.10;99.90;;;;;;5029910;28;20216;-80
2022/11/12 01:58:14;;;;;;;7.32;1.80;;;26.00;99.90;;;;;;5032478;28;20204;-78
2022/11/12 02:00:45;;;;;;;5.10;2.10;;;26.00;99.90;;;;;;5028796;28;20198;-79
2022/11/12 02:03:20;;;;;;;2.65;1.50;;;25.80;99.90;;;;;;5026322;28;20210;-79
2022/11/12 02:05:54;;;;;;;4.40;1.80;;;25.90;99.90;;;;;;5028640;28;20672;-81
2022/11/12 02:08:25;;;;;;;2.45;1.55;;;25.90;99.90;;;;;;5029441;28;20193;-81
2022/11/12 02:10:58;;;;;;;2.97;1.50;;;26.00;99.90;;;;;;5029648;28;20198;-81
2022/11/12 02:16:15;;;;;;;4.40;1.90;;;25.90;99.90;;;;;;5030271;28;20296;-80
2022/11/12 02:18:46;;;;;;;3.22;1.80;;;26.00;99.90;;;;;;5028675;28;20203;-80
2022/11/12 02:21:22;;;;;;;4.18;1.67;;;25.90;99.90;;;;;;5031187;28;20198;-78
2022/11/12 02:24:01;;;;;;;3.55;1.50;;;25.90;99.90;;;;;;5031290;28;20194;-79
2022/11/12 02:26:35;;;;;;;4.07;1.70;;;25.90;99.90;;;;;;5022649;28;20206;-79
2022/11/12 02:29:06;;;;;;;4.28;1.70;;;26.10;99.90;;;;;;5029733;28;20281;-77
2022/11/12 02:31:37;;;;;;;4.18;1.55;;;26.20;99.90;;;;;;5027067;28;20198;-78
2022/11/12 02:34:07;;;;;;;1.95;1.38;;;26.20;99.90;;;;;;5025131;28;20649;-78
2022/11/12 02:36:40;;;;;;;3.28;1.77;;;26.10;99.90;;;;;;5026561;28;22071;-78
2022/11/12 02:39:11;;;;;;;4.68;1.80;;;26.10;99.90;;;;;;5029805;28;20197;-80
2022/11/12 02:41:42;;;;;;;4.28;1.65;;;26.00;99.90;;;;;;5030924;28;20202;-81
2022/11/12 02:44:12;;;;;;;2.17;1.45;;;26.00;99.90;;;;;;5031858;28;20273;-75
2022/11/12 02:46:43;;;;;;;3.65;1.30;;;26.10;99.90;;;;;;5029041;28;20202;-76
2022/11/12 02:49:14;;;;;;;3.30;1.20;;;26.20;99.90;;;;;;5028187;28;20194;-76
2022/11/12 02:51:48;;;;;;;1.40;1.30;;;26.30;99.90;;;;;;5024241;28;20198;-77
2022/11/12 02:54:19;;;;;;;2.85;1.30;;;26.40;99.90;;;;;;5030210;28;20214;-78
2022/11/12 02:56:49;;;;;;;1.67;1.23;;;26.40;99.90;;;;;;5032253;28;20222;-78
2022/11/12 02:59:20;;;;;;;3.15;1.20;;;26.60;99.90;;;;;;5027143;28;20202;-78
2022/11/12 03:01:51;;;;;;;2.55;1.20;;;26.70;99.90;;;;;;5030753;28;20728;-80
2022/11/12 03:04:22;;;;;;;2.65;1.40;;;26.60;99.90;;;;;;5030468;28;20202;-79
2022/11/12 03:06:54;;;;;;;2.20;1.33;;;26.60;99.90;;;;;;5028387;28;20922;-81
2022/11/12 03:09:25;;;;;;;1.75;1.30;;;26.50;99.90;;;;;;5025358;28;20721;-78
2022/11/12 03:11:56;;;;;;;5.35;1.65;;;26.60;99.90;;;;;;5031411;28;20205;-81
2022/11/12 03:14:27;;;;;;;3.05;1.40;;;26.50;99.90;;;;;;5032200;28;20186;-83
2022/11/12 03:16:57;;;;;;;1.65;1.38;;;26.50;99.90;;;;;;5031621;28;20301;-78
2022/11/12 03:19:28;;;;;;;2.38;1.30;;;26.50;99.90;;;;;;5027734;28;20186;-78
2022/11/12 03:22:01;;;;;;;3.65;1.50;;;26.40;99.90;;;;;;5031421;28;20282;-77
2022/11/12 03:24:32;;;;;;;2.53;1.33;;;26.40;99.90;;;;;;5027323;28;20195;-75
2022/11/12 03:27:02;;;;;;;2.90;1.70;;;26.40;99.90;;;;;;5030084;28;20198;-78
2022/11/12 03:29:33;;;;;;;4.72;1.60;;;26.20;99.90;;;;;;5028307;28;20194;-79
2022/11/12 03:32:04;;;;;;;3.53;1.65;;;26.10;99.90;;;;;;5030442;28;20805;-79
2022/11/12 03:34:35;;;;;;;6.10;2.15;;;25.90;99.90;;;;;;5031093;28;20186;-76
2022/11/12 03:37:08;;;;;;;4.22;1.77;;;25.80;99.90;;;;;;5030456;28;20229;-78
2022/11/12 03:39:39;;;;;;;3.92;1.60;;;25.80;99.90;;;;;;5028026;28;20665;-78
2022/11/12 03:42:10;;;;;;;4.85;1.52;;;25.60;99.90;;;;;;5024463;28;20206;-79
2022/11/12 03:44:41;;;;;;;5.63;1.73;;;25.60;99.90;;;;;;5028846;28;20674;-78
2022/11/12 03:47:12;;;;;;;3.28;1.67;;;25.50;99.90;;;;;;5030987;28;20193;-78
2022/11/12 03:49:43;;;;;;;3.65;1.75;;;25.40;99.90;;;;;;5031122;28;20190;-78
2022/11/12 03:52:15;;;;;;;5.00;1.90;;;25.40;99.90;;;;;;5030177;28;20198;-80
2022/11/12 03:54:46;;;;;;;6.00;1.98;;;25.40;99.90;;;;;;5029477;28;20552;-76
2022/11/12 03:57:17;;;;;;;1.95;1.70;;;25.50;99.90;;;;;;5030889;28;20664;-78
2022/11/12 03:59:48;;;;;;;5.07;1.75;;;25.30;99.90;;;;;;5029300;28;20217;-77
2022/11/12 04:02:18;;;;;;;5.18;1.70;;;25.20;99.90;;;;;;5029402;28;20213;-78
2022/11/12 04:10:24;;;;;;;4.30;1.85;;;25.20;99.90;;;;;;5031155;28;20332;-79
2022/11/12 04:15:42;;;;;;;3.25;1.70;;;25.10;99.90;;;;;;5028127;28;20368;-78
2022/11/12 04:23:48;;;;;;;3.80;1.67;;;24.80;99.90;;;;;;5023559;28;20194;-80
2022/11/12 04:26:23;;;;;;;3.53;1.75;;;24.80;99.90;;;;;;5030650;28;20564;-78
2022/11/12 04:31:40;;;;;;;7.35;1.80;;;24.70;99.90;;;;;;5028386;28;20190;-77
2022/11/12 04:34:29;;;;;;;5.70;1.60;;;24.70;99.90;;;;;;5027818;28;20202;-77
2022/11/12 04:37:04;;;;;;;4.03;1.50;;;24.80;99.90;;;;;;5027897;28;20236;-77
2022/11/12 04:39:36;;;;;;;5.00;1.90;;;24.80;99.90;;;;;;5032750;28;20191;-76
2022/11/12 04:45:05;;;;;;;3.33;1.70;;;24.80;99.90;;;;;;5032759;28;20205;-78
2022/11/12 04:47:38;;;;;;;3.85;1.73;;;24.80;99.90;;;;;;5031566;28;20583;-80
2022/11/12 04:50:14;;;;;;;6.82;1.77;;;24.80;99.90;;;;;;5030843;28;20683;-80
2022/11/12 04:52:45;;;;;;;4.30;1.70;;;24.80;99.90;;;;;;5033661;28;20261;-83
2022/11/12 04:55:26;;;;;;;4.57;1.70;;;24.60;99.90;;;;;;5032368;28;20288;-77
2022/11/12 04:57:57;;;;;;;4.75;1.90;;;24.60;99.90;;;;;;5031096;28;20243;-76
2022/11/12 05:00:28;;;;;;;5.95;1.60;;;24.50;99.90;;;;;;5033521;28;20193;-78
2022/11/12 05:03:00;;;;;;;5.65;1.73;;;24.50;99.90;;;;;;5033563;28;20750;-78
2022/11/12 05:05:32;;;;;;;3.78;1.70;;;24.30;99.90;;;;;;5033650;28;20201;-78
2022/11/12 05:08:03;;;;;;;7.13;1.92;;;24.10;99.90;;;;;;5031642;28;20202;-78
2022/11/12 05:10:36;;;;;;;5.40;1.80;;;23.90;99.90;;;;;;5032383;28;20183;-80
2022/11/12 05:13:06;;;;;;;4.45;1.80;;;23.80;99.90;;;;;;5028622;28;20194;-79
2022/11/12 05:15:37;;;;;;;6.80;1.80;;;23.70;99.90;;;;;;5024938;28;20210;-81
2022/11/12 05:18:09;;;;;;;5.30;1.88;;;23.60;99.90;;;;;;5028197;28;20198;-79
2022/11/12 05:20:39;;;;;;;6.88;1.63;;;23.60;99.90;;;;;;5033043;28;20194;-77
2022/11/12 05:23:10;;;;;;;5.15;2.00;;;23.50;99.90;;;;;;5027669;28;20199;-78
2022/11/12 05:25:43;;;;;;;4.68;2.00;;;23.50;99.90;;;;;;5029869;28;20677;-79
2022/11/12 05:28:13;;;;;;;5.32;2.17;;;23.40;99.90;;;;;;5024326;28;20201;-78
2022/11/12 05:30:44;;;;;;;4.22;1.75;;;23.30;99.90;;;;;;5027908;28;20200;-77
2022/11/12 05:33:15;;;;;;;6.53;1.73;;;23.30;99.90;;;;;;5030300;28;20205;-79
2022/11/12 05:35:46;;;;;;;8.27;1.73;;;23.20;99.90;;;;;;5032247;28;20210;-78
2022/11/12 05:38:17;;;;;;;8.90;1.92;;;23.20;99.90;;;;;;5032527;28;20230;-78
2022/11/12 05:40:50;;;;;;;4.68;1.40;;;23.10;99.90;;;;;;5031589;28;20657;-77
2022/11/12 05:43:24;;;;;;;3.63;1.77;;;23.00;99.90;;;;;;5030915;28;20202;-75
2022/11/12 05:45:55;;;;;;;6.70;2.15;;;22.90;99.90;;;;;;5030748;28;20232;-78
2022/11/12 05:48:26;;;;;;;9.55;1.73;;;22.80;99.90;;;;;;5029192;28;20194;-78
2022/11/12 05:50:57;;;;;;;4.05;1.70;;;22.80;99.90;;;;;;5032189;28;20198;-79
2022/11/12 05:53:28;;;;;;;4.93;1.70;;;22.80;99.90;;;;;;5030692;28;20230;-79
2022/11/12 05:56:03;;;;;;;8.55;1.92;;;22.80;99.90;;;;;;5026873;28;20224;-78
2022/11/12 05:58:34;;;;;;;4.65;1.67;;;22.70;99.90;;;;;;5027159;28;20201;-79
2022/11/12 06:01:05;;;;;;;4.07;1.65;;;22.70;99.90;;;;;;5029522;28;20202;-79
2022/11/12 06:03:36;;;;;;;5.82;1.80;;;22.60;99.90;;;;;;5033052;28;20204;-78
2022/11/12 06:06:07;;;;;;;6.75;1.60;;;22.50;99.90;;;;;;5030291;28;20198;-77
2022/11/12 06:08:38;;;;;;;5.45;1.70;;;22.40;99.90;;;;;;5026992;28;20609;-77
2022/11/12 06:11:10;;;;;;;4.53;1.73;;;22.30;99.90;;;;;;5023451;28;20561;-78
2022/11/12 06:13:41;;;;;;;7.13;1.80;;;22.20;99.90;;;;;;5028689;28;20198;-79
2022/11/12 06:16:12;;;;;;;5.40;1.70;;;22.10;99.90;;;;;;5028436;28;20692;-79
2022/11/12 06:18:43;;;;;;;5.60;1.60;;;22.10;99.90;;;;;;5026805;28;20285;-79
2022/11/12 06:21:21;;;;;;;5.35;1.83;;;22.10;99.90;;;;;;5026120;28;20200;-79
2022/11/12 06:23:53;;;;;;;5.20;2.05;;;22.10;99.90;;;;;;5027671;28;20206;-78
2022/11/12 06:26:28;;;;;;;6.15;1.80;;;22.10;99.90;;;;;;5025260;28;20194;-79
2022/11/12 06:28:59;;;;;;;4.63;1.73;;;22.00;99.90;;;;;;5026265;28;20197;-76
2022/11/12 06:31:30;;;;;;;6.63;2.03;;;21.90;99.90;;;;;;5026273;28;20202;-78
2022/11/12 06:34:00;;;;;;;4.70;1.80;;;21.80;99.90;;;;;;5026552;28;20190;-78
2022/11/12 06:36:31;;;;;;;3.72;1.55;;;21.80;99.90;;;;;;5026861;28;20264;-77
2022/11/12 06:39:02;;;;;;;7.20;1.70;;;21.80;99.90;;;;;;5023546;28;20202;-78
2022/11/12 06:41:35;;;;;;;5.70;1.90;;;21.70;99.90;;;;;;5021470;28;20190;-82
2022/11/12 06:44:07;;;;;;;18.48;12.65;;;21.70;99.90;;;;;;5030784;28;20198;-77
2022/11/12 06:46:38;;;;;;;9.73;3.13;;;21.70;99.90;;;;;;5029177;28;20205;-79
2022/11/12 06:49:09;;;;;;;7.57;2.00;;;21.60;99.90;;;;;;5030589;28;20197;-78
2022/11/12 06:51:40;;;;;;;5.25;1.98;;;21.60;99.90;;;;;;5028641;28;20206;-76
2022/11/12 06:54:10;;;;;;;3.85;1.55;;;21.60;99.90;;;;;;5030001;28;20654;-78
2022/11/12 06:56:43;;;;;;;4.07;1.80;;;21.60;99.90;;;;;;5028786;28;20218;-78
2022/11/12 06:59:14;;;;;;;6.40;2.00;;;21.60;99.90;;;;;;5029793;28;20190;-78
2022/11/12 07:01:45;;;;;;;7.40;2.10;;;21.60;99.90;;;;;;5031215;28;20194;-78
2022/11/12 07:04:15;;;;;;;4.10;1.73;;;21.60;99.90;;;;;;5024114;28;20206;-77
2022/11/12 07:06:46;;;;;;;5.35;1.67;;;21.70;99.90;;;;;;5025180;28;20203;-78
2022/11/12 07:09:17;;;;;;;7.82;1.95;;;21.70;99.90;;;;;;5027980;28;21126;-79
2022/11/12 07:11:50;;;;;;;10.00;3.67;;;21.70;99.90;;;;;;5023150;28;20277;-78
2022/11/12 07:14:20;;;;;;;7.05;3.25;;;21.70;99.90;;;;;;5031425;28;20204;-79
2022/11/12 07:16:51;;;;;;;6.80;2.05;;;21.70;99.90;;;;;;5028245;28;20214;-79
2022/11/12 07:19:22;;;;;;;5.05;1.80;;;21.70;99.90;;;;;;5027801;28;20208;-81
2022/11/12 07:21:53;;;;;;;8.10;2.03;;;21.70;99.90;;;;;;5031464;28;20202;-79
2022/11/12 07:24:23;;;;;;;6.38;1.73;;;21.60;99.90;;;;;;5031150;28;20657;-79
2022/11/12 07:26:56;;;;;;;5.13;1.98;;;21.60;99.90;;;;;;5028344;28;20196;-78
2022/11/12 07:29:27;;;;;;;8.00;2.00;;;21.50;99.90;;;;;;5028954;28;20206;-78
2022/11/12 07:31:57;;;;;;;4.32;2.55;;;21.40;99.90;;;;;;5026740;28;20201;-79
2022/11/12 07:34:28;;;;;;;5.60;1.58;;;21.40;99.90;;;;;;5021512;28;20201;-78
2022/11/12 07:36:59;;;;;;;4.75;1.63;;;21.30;99.90;;;;;;5025192;28;20249;-78
2022/11/12 07:39:30;;;;;;;5.00;1.63;;;21.20;99.90;;;;;;5030038;28;20206;-85
2022/11/12 07:42:02;;;;;;;7.60;1.75;;;21.20;99.90;;;;;;5031028;28;20191;-79
2022/11/12 07:44:33;;;;;;;5.72;2.03;;;21.20;99.90;;;;;;5023377;28;20190;-79
2022/11/12 07:47:04;;;;;;;6.55;2.00;;;21.10;99.90;;;;;;5027396;28;20198;-77
2022/11/12 07:49:35;;;;;;;3.90;1.48;;;21.10;99.90;;;;;;5028973;28;21046;-81
2022/11/12 07:52:06;;;;;;;4.57;1.70;;;21.10;99.90;;;;;;5028275;28;20197;-77
2022/11/12 07:54:37;;;;;;;5.10;1.95;;;21.10;99.90;;;;;;5031426;28;20198;-78
2022/11/12 07:57:09;;;;;;;4.88;2.10;;;21.10;99.90;;;;;;5031674;28;20684;-78
2022/11/12 07:59:41;;;;;;;4.07;1.70;;;21.10;99.90;;;;;;5026809;28;20190;-78
2022/11/12 08:02:12;;;;;;;4.55;1.77;;;21.00;99.90;;;;;;5029856;28;20202;-79
2022/11/12 08:04:43;;;;;;;5.80;2.00;;;21.00;99.90;;;;;;5028624;28;20198;-81
2022/11/12 08:07:14;;;;;;;6.00;1.90;;;21.00;99.90;;;;;;5031302;28;20285;-80
2022/11/12 08:09:45;;;;;;;4.82;2.08;;;21.00;99.90;;;;;;5028328;28;20194;-76
2022/11/12 08:12:17;;;;;;;3.92;1.70;;;21.00;99.90;;;;;;5027685;28;20203;-79
2022/11/12 08:14:48;;;;;;;5.63;1.67;;;21.00;99.90;;;;;;5030679;28;20204;-82
2022/11/12 08:17:19;;;;;;;5.10;1.88;;;20.90;99.90;;;;;;5027670;28;20580;-79
2022/11/12 08:19:54;;;;;;;7.25;2.05;;;20.90;99.90;;;;;;5028196;28;20668;-77
2022/11/12 08:22:25;;;;;;;4.00;1.90;;;20.90;99.90;;;;;;5030532;28;20646;-79
2022/11/12 08:24:56;;;;;;;3.80;1.70;;;20.90;99.90;;;;;;5029793;28;20200;-79
2022/11/12 08:27:28;;;;;;;4.53;2.10;;;20.90;99.90;;;;;;5034491;28;20208;-78
2022/11/12 08:29:59;;;;;;;8.13;2.20;;;20.90;99.90;;;;;;5026332;28;20338;-77
2022/11/12 08:32:30;;;;;;;6.90;1.77;;;20.80;99.90;;;;;;5029574;28;20198;-80
2022/11/12 08:35:01;;;;;;;3.75;1.85;;;20.80;99.90;;;;;;5030809;28;20198;-79
2022/11/12 08:37:31;;;;;;;4.38;1.80;;;20.80;99.90;;;;;;5028378;28;20248;-81
2022/11/12 08:40:02;;;;;;;3.95;1.98;;;20.70;99.90;;;;;;5027523;28;20194;-81
2022/11/12 08:42:35;;;;;;;5.75;1.85;;;20.70;99.90;;;;;;5031072;28;20202;-78
2022/11/12 08:45:06;;;;;;;2.60;1.63;;;20.70;99.90;;;;;;5027766;28;20202;-79
2022/11/12 08:47:36;;;;;;;5.80;1.90;;;20.80;99.90;;;;;;5032692;28;20198;-78
2022/11/12 08:50:08;;;;;;;3.40;1.90;;;20.80;99.90;;;;;;5030581;28;20198;-78
2022/11/12 08:52:38;;;;;;;3.65;1.60;;;20.80;99.90;;;;;;5033970;28;20190;-77
2022/11/12 08:55:10;;;;;;;5.60;1.88;;;20.80;99.90;;;;;;5023513;28;20194;-80
2022/11/12 08:57:45;;;;;;;7.22;2.42;;;20.80;99.90;;;;;;5032154;28;20236;-82
2022/11/12 09:00:18;;;;;;;4.43;2.08;;;20.80;99.90;;;;;;5033691;28;20204;-80
2022/11/12 09:02:48;;;;;;;8.52;1.92;;;20.80;99.90;;;;;;5028564;28;20292;-80
2022/11/12 09:05:19;;;;;;;6.70;1.90;;;20.80;99.90;;;;;;5035586;28;20190;-82
2022/11/12 09:07:50;;;;;;;4.93;1.90;;;20.80;99.90;;;;;;5029284;28;20260;-80
2022/11/12 09:10:21;;;;;;;7.68;2.50;;;20.80;99.90;;;;;;5032342;28;20199;-78
2022/11/12 09:12:56;;;;;;;3.55;2.20;;;20.80;99.90;;;;;;5032143;28;20294;-84
2022/11/12 09:15:28;;;;;;;6.85;2.00;;;20.80;99.90;;;;;;5030006;28;20197;-82
2022/11/12 09:17:59;;;;;;;5.85;2.35;;;20.80;99.90;;;;;;5029994;28;20686;-81
2022/11/12 09:20:31;;;;;;;6.07;2.13;;;20.80;99.90;;;;;;5032818;28;20202;-79
2022/11/12 09:23:02;;;;;;;5.25;2.10;;;20.80;99.90;;;;;;5027575;28;20213;-79
2022/11/12 09:25:33;;;;;;;4.10;2.03;;;20.80;99.90;;;;;;5031680;28;20202;-82
2022/11/12 09:28:12;;;;;;;5.45;2.05;;;20.80;99.90;;;;;;5034735;28;20198;-82
2022/11/12 09:30:46;;;;;;;5.40;2.10;;;20.90;99.90;;;;;;5029084;28;20198;-83
2022/11/12 09:33:18;;;;;;;6.93;2.15;;;20.90;99.90;;;;;;5028586;28;20665;-83
2022/11/12 09:35:49;;;;;;;6.75;2.00;;;20.90;99.90;;;;;;5019778;28;20677;-80
2022/11/12 09:38:21;;;;;;;7.28;2.22;;;21.00;99.90;;;;;;5027686;28;20247;-83
2022/11/12 09:41:13;;;;;;;5.43;2.03;;;21.00;99.90;;;;;;5033596;28;20232;-83
2022/11/12 09:43:51;;;;;;;6.68;1.92;;;21.00;99.90;;;;;;5033346;28;20273;-84
2022/11/12 09:46:35;;;;;;;3.88;2.08;;;21.00;99.90;;;;;;5031007;28;20613;-83
2022/11/12 09:49:12;;;;;;;8.20;2.38;;;21.00;99.90;;;;;;5031807;28;20194;-84
2022/11/12 09:51:49;;;;;;;5.45;2.20;;;21.00;99.90;;;;;;5031993;28;20655;-82
2022/11/12 09:54:24;;;;;;;3.70;1.88;;;20.90;99.90;;;;;;5021372;28;20664;-80
2022/11/12 09:56:56;;;;;;;4.78;1.98;;;21.00;99.90;;;;;;5028981;28;20212;-82
2022/11/12 09:59:32;;;;;;;5.65;2.33;;;21.00;99.90;;;;;;5032241;28;20198;-83
2022/11/12 10:02:14;;;;;;;7.25;2.30;;;21.00;99.90;;;;;;5027003;28;20198;-83
2022/11/12 10:04:58;;;;;;;5.72;2.15;;;21.00;99.90;;;;;;5024669;28;20293;-84
2022/11/12 10:07:41;;;;;;;17.98;10.73;;;21.00;99.90;;;;;;5027276;28;20273;-82
2022/11/12 10:10:16;;;;;;;7.63;2.38;;;21.00;99.90;;;;;;5034311;28;20206;-86
2022/11/12 10:13:02;;;;;;;6.13;2.05;;;21.00;99.90;;;;;;5029843;28;20200;-84
2022/11/12 10:18:50;;;;;;;5.70;2.35;;;21.00;99.90;;;;;;5006801;28;20581;-85
2022/11/12 10:21:31;;;;;;;5.25;1.60;;;21.00;99.90;;;;;;5027088;28;20202;-78
2022/11/12 10:24:02;;;;;;;7.03;1.73;;;21.00;99.90;;;;;;5029579;28;20194;-85
2022/11/12 10:26:35;;;;;;;5.72;2.00;;;21.00;99.90;;;;;;5031201;28;20194;-83
2022/11/12 10:29:16;;;;;;;4.30;1.70;;;20.90;99.90;;;;;;5024473;28;20206;-80
2022/11/12 10:31:49;;;;;;;4.55;1.70;;;20.90;99.90;;;;;;5026484;28;20205;-85
2022/11/12 10:34:21;;;;;;;5.60;2.10;;;20.90;99.90;;;;;;5031787;28;20194;-85
2022/11/12 10:36:55;;;;;;;4.40;2.13;;;20.90;99.90;;;;;;5028762;28;20234;-87
2022/11/12 10:39:40;;;;;;;6.68;1.98;;;20.90;99.90;;;;;;5027699;28;20729;-86
2022/11/12 10:42:13;;;;;;;6.38;2.08;;;20.80;99.90;;;;;;5031146;28;20205;-86
2022/11/12 10:44:44;;;;;;;7.40;2.08;;;20.90;99.90;;;;;;5025651;28;20221;-85
2022/11/12 10:47:29;;;;;;;6.32;2.00;;;20.90;99.90;;;;;;5031470;28;20246;-77
2022/11/12 10:50:21;;;;;;;5.85;2.00;;;20.80;99.90;;;;;;5030201;28;20208;-84
2022/11/12 10:53:01;;;;;;;6.35;2.20;;;20.80;99.90;;;;;;5031966;28;20201;-81
2022/11/12 10:55:33;;;;;;;4.10;2.10;;;20.80;99.90;;;;;;5031464;28;20270;-83
2022/11/12 10:58:18;;;;;;;7.25;2.10;;;20.80;99.90;;;;;;5030060;28;20222;-79
2022/11/12 11:01:06;;;;;;;6.60;2.22;;;20.70;99.90;;;;;;5028195;28;20755;-82
2022/11/12 11:03:47;;;;;;;6.68;2.03;;;20.70;99.90;;;;;;5030036;28;20661;-77
2022/11/12 11:06:26;;;;;;;4.90;1.92;;;20.70;99.90;;;;;;5032619;28;20200;-81
2022/11/12 11:09:10;;;;;;;3.72;1.98;;;20.70;99.90;;;;;;5029308;28;20198;-86
2022/11/12 11:11:49;;;;;;;4.55;2.10;;;20.70;99.90;;;;;;5024794;28;20198;-81
2022/11/12 11:14:34;;;;;;;6.32;1.98;;;20.60;99.90;;;;;;5030993;28;20194;-83
2022/11/12 11:17:09;;;;;;;5.75;2.00;;;20.60;99.90;;;;;;5030042;28;20202;-84
2022/11/12 11:19:43;;;;;;;8.10;2.30;;;20.50;99.90;;;;;;5016326;28;20197;-83
2022/11/12 11:22:29;;;;;;;5.40;2.00;;;20.60;99.90;;;;;;5024947;28;20204;-80
2022/11/12 11:25:13;;;;;;;6.18;2.20;;;20.50;99.90;;;;;;5029177;28;20224;-78
2022/11/12 11:27:56;;;;;;;9.15;2.75;;;20.50;99.90;;;;;;5028542;28;20202;-81
2022/11/12 11:30:28;;;;;;;6.65;2.30;;;20.50;99.90;;;;;;5028244;28;20206;-82
2022/11/12 11:33:26;;;;;;;5.75;2.35;;;20.50;99.90;;;;;;5032689;28;20206;-79
2022/11/12 11:36:07;;;;;;;4.75;2.10;;;20.50;99.90;;;;;;5023834;28;20222;-78
2022/11/12 11:38:49;;;;;;;7.38;2.40;;;20.50;99.90;;;;;;5024093;28;20221;-77
2022/11/12 11:41:48;;;;;;;3.85;2.00;;;20.50;99.90;;;;;;5028282;28;20234;-80
2022/11/12 11:44:28;;;;;;;5.38;2.28;;;20.50;99.90;;;;;;5027038;28;20201;-79
2022/11/12 11:47:08;;;;;;;6.38;2.22;;;20.50;99.90;;;;;;5030880;28;20194;-87
2022/11/12 11:50:10;;;;;;;7.82;2.70;;;20.60;99.90;;;;;;5034201;28;20204;-78
2022/11/12 11:53:00;;;;;;;4.90;2.55;;;20.60;99.90;;;;;;5015387;28;20199;-78
2022/11/12 11:55:51;;;;;;;7.07;2.40;;;20.60;99.90;;;;;;5031372;28;20201;-78
2022/11/12 11:58:44;;;;;;;8.88;2.60;;;20.60;99.90;;;;;;5031341;28;20222;-80
2022/11/12 12:01:22;;;;;;;5.72;2.25;;;20.60;99.90;;;;;;5033498;28;20198;-80
2022/11/12 12:04:09;;;;;;;6.10;2.20;;;20.60;99.90;;;;;;5032265;28;20190;-80
2022/11/12 12:06:48;;;;;;;5.13;2.00;;;20.60;99.90;;;;;;5029999;28;20206;-81
2022/11/12 12:09:31;;;;;;;4.82;2.10;;;20.60;99.90;;;;;;5033291;28;20202;-79
2022/11/12 12:12:16;;;;;;;8.27;2.42;;;20.60;99.90;;;;;;5031083;28;20198;-81
2022/11/12 12:14:56;;;;;;;5.00;2.15;;;20.50;99.90;;;;;;5030561;28;20206;-87
2022/11/12 12:17:37;;;;;;;6.55;2.40;;;20.50;99.90;;;;;;5030531;28;20255;-78
2022/11/12 12:20:20;;;;;;;6.32;2.33;;;20.50;99.90;;;;;;5033482;28;20233;-78
2022/11/12 12:22:55;;;;;;;5.65;2.10;;;20.40;99.90;;;;;;5033769;28;20254;-78
2022/11/12 12:25:33;;;;;;;4.88;2.08;;;20.40;99.90;;;;;;5032201;28;20182;-83
2022/11/12 12:28:11;;;;;;;4.75;2.10;;;20.40;99.90;;;;;;5027174;28;20209;-81
2022/11/12 12:30:46;;;;;;;4.60;2.33;;;20.40;99.90;;;;;;5029327;28;20194;-83
2022/11/12 12:33:29;;;;;;;6.70;2.45;;;20.40;99.90;;;;;;5030602;28;20271;-82
2022/11/12 12:36:03;;;;;;;5.75;2.33;;;20.40;99.90;;;;;;5029593;28;20220;-78
2022/11/12 12:38:40;;;;;;;6.35;2.65;;;20.30;99.90;;;;;;5030536;28;20225;-82
2022/11/12 12:41:26;;;;;;;6.75;2.60;;;20.40;99.90;;;;;;5029886;28;20193;-82
2022/11/12 12:44:00;;;;;;;6.50;2.10;;;20.40;99.90;;;;;;5027191;28;20205;-80
2022/11/12 12:46:35;;;;;;;3.97;2.20;;;20.40;99.90;;;;;;5025210;28;20313;-80
2022/11/12 12:49:09;;;;;;;5.40;2.60;;;20.40;99.90;;;;;;5030981;28;20198;-80
2022/11/12 12:51:40;;;;;;;6.18;2.90;;;20.40;99.90;;;;;;5027770;28;20661;-83
2022/11/12 12:54:42;;;;;;;9.13;2.75;;;20.40;99.90;;;;;;5028837;28;20190;-81
2022/11/12 12:57:36;;;;;;;6.45;2.45;;;20.40;99.90;;;;;;5025615;28;20194;-79
2022/11/12 13:00:34;;;;;;;4.85;2.17;;;20.30;99.90;;;;;;5028666;28;20204;-77
2022/11/12 13:03:04;;;;;;;7.30;2.55;;;20.30;99.90;;;;;;5028813;28;20208;-76
2022/11/12 13:05:39;;;;;;;7.85;2.85;;;20.30;99.90;;;;;;5033631;28;20194;-82
2022/11/12 13:08:13;;;;;;;6.82;2.50;;;20.30;99.90;;;;;;5030537;28;20228;-81
2022/11/12 13:10:53;;;;;;;5.20;2.75;;;20.20;99.90;;;;;;5027186;28;20284;-80
2022/11/12 13:13:34;;;;;;;5.60;2.20;;;20.20;99.90;;;;;;5029299;28;20296;-78
2022/11/12 13:16:05;;;;;;;8.00;2.70;;;20.20;99.90;;;;;;5031497;28;20186;-81
2022/11/12 13:19:11;;;;;;;14.45;4.18;;;20.20;99.90;;;;;;5033628;28;20707;-78
2022/11/12 13:21:45;;;;;;;10.68;3.50;;;20.20;99.90;;;;;;5031484;28;20269;-79
2022/11/12 13:24:17;;;;;;;7.88;2.92;;;20.20;99.90;;;;;;5031571;28;20190;-82
2022/11/12 13:26:53;;;;;;;4.55;2.47;;;20.20;99.90;;;;;;5033854;28;20187;-78
2022/11/12 13:29:49;;;;;;;6.18;2.83;;;20.10;99.90;;;;;;5028245;28;20199;-77
2022/11/12 13:32:42;;;;;;;5.88;2.25;;;20.10;99.90;;;;;;5033431;28;20199;-80
2022/11/12 13:35:33;;;;;;;5.32;2.45;;;20.20;99.90;;;;;;5031082;28;20197;-77
2022/11/12 13:38:14;;;;;;;6.78;2.60;;;20.20;99.90;;;;;;5029613;28;20628;-80
2022/11/12 13:40:52;;;;;;;8.70;2.47;;;20.20;99.90;;;;;;5029518;28;20205;-79
2022/11/12 13:43:37;;;;;;;5.22;2.40;;;20.20;99.90;;;;;;5031422;28;20194;-77
2022/11/12 13:46:27;;;;;;;5.38;2.08;;;20.10;99.90;;;;;;5029170;28;20194;-77
2022/11/12 13:49:02;;;;;;;5.68;2.60;;;20.10;99.90;;;;;;5030519;28;20680;-80